createdAt,value
2023-04-15T00:00:37.818Z,47.50
2023-04-15T00:03:07.320Z,48.10
2023-04-15T00:05:35.996Z,47.70
2023-04-15T00:08:04.496Z,48.20
2023-04-15T00:10:34.032Z,47.60
2023-04-15T00:13:04.382Z,48.70
2023-04-15T00:15:32.873Z,50.10
2023-04-15T00:18:01.339Z,48.90
2023-04-15T00:20:29.558Z,48.10
2023-04-15T00:22:58.044Z,47.50
2023-04-15T00:25:26.307Z,47.00
2023-04-15T00:27:55.935Z,46.60
2023-04-15T00:30:26.594Z,46.90
2023-04-15T00:32:54.788Z,47.50
2023-04-15T00:35:24.132Z,46.70
2023-04-15T00:37:52.337Z,46.60
2023-04-15T00:40:24.613Z,46.70
2023-04-15T00:42:53.456Z,46.50
2023-04-15T00:45:23.378Z,46.30
2023-04-15T00:47:52.470Z,46.30
2023-04-15T00:50:20.722Z,47.30
2023-04-15T00:52:49.600Z,47.20
2023-04-15T00:55:17.896Z,47.00
2023-04-15T00:57:46.511Z,47.00
2023-04-15T01:00:16.638Z,47.10
2023-04-15T01:02:46.670Z,47.70
2023-04-15T01:05:17.274Z,47.00
2023-04-15T01:07:45.488Z,47.30
2023-04-15T01:10:13.755Z,47.60
2023-04-15T01:12:43.596Z,47.40
2023-04-15T01:15:12.307Z,47.60
2023-04-15T01:17:41.060Z,47.80
2023-04-15T01:20:12.162Z,48.00
2023-04-15T01:22:40.849Z,48.50
2023-04-15T01:25:13.676Z,48.90
2023-04-15T01:27:43.702Z,49.00
2023-04-15T01:30:12.623Z,50.30
2023-04-15T01:32:41.095Z,49.90
2023-04-15T01:35:09.946Z,50.00
2023-04-15T01:37:38.479Z,50.30
2023-04-15T01:40:08.297Z,50.70
2023-04-15T01:42:37.720Z,51.20
2023-04-15T01:45:08.567Z,51.40
2023-04-15T01:47:39.316Z,51.60
2023-04-15T01:50:08.513Z,51.70
2023-04-15T01:52:36.675Z,51.40
2023-04-15T01:55:06.388Z,51.40
2023-04-15T01:57:34.709Z,51.40
2023-04-15T02:00:03.608Z,51.50
2023-04-15T02:02:43.050Z,51.30
2023-04-15T02:05:11.210Z,51.30
2023-04-15T02:07:39.295Z,51.60
2023-04-15T02:10:08.045Z,50.90
2023-04-15T02:12:37.065Z,50.70
2023-04-15T02:15:06.104Z,50.80
2023-04-15T02:17:36.517Z,50.60
2023-04-15T02:20:07.124Z,51.30
2023-04-15T02:22:35.443Z,50.60
2023-04-15T02:25:03.883Z,50.60
2023-04-15T02:27:33.889Z,50.70
2023-04-15T02:30:02.068Z,50.70
2023-04-15T02:32:30.217Z,51.00
2023-04-15T02:34:58.417Z,51.10
2023-04-15T02:37:28.679Z,51.10
2023-04-15T02:39:57.293Z,51.00
2023-04-15T02:42:28.035Z,52.60
2023-04-15T02:44:56.741Z,52.50
2023-04-15T02:47:30.423Z,52.10
2023-04-15T02:50:00.546Z,52.20
2023-04-15T02:52:31.785Z,52.20
2023-04-15T02:55:02.621Z,52.00
2023-04-15T02:57:31.798Z,52.40
2023-04-15T03:00:09.952Z,52.50
2023-04-15T03:02:42.131Z,52.10
2023-04-15T03:05:13.895Z,52.50
2023-04-15T03:07:49.608Z,52.20
2023-04-15T03:10:18.140Z,51.90
2023-04-15T03:12:47.972Z,52.40
2023-04-15T03:15:19.719Z,52.50
2023-04-15T03:17:51.266Z,53.00
2023-04-15T03:20:19.768Z,52.70
2023-04-15T03:22:51.025Z,53.10
2023-04-15T03:25:21.561Z,53.20
2023-04-15T03:27:49.770Z,53.20
2023-04-15T03:30:19.193Z,53.60
2023-04-15T03:32:47.727Z,53.80
2023-04-15T03:35:16.609Z,53.70
2023-04-15T03:37:44.750Z,53.60
2023-04-15T03:40:14.678Z,52.80
2023-04-15T03:42:42.928Z,53.50
2023-04-15T03:45:12.128Z,53.30
2023-04-15T03:47:40.331Z,52.80
2023-04-15T03:50:09.385Z,52.80
2023-04-15T03:52:37.593Z,53.10
2023-04-15T03:55:06.757Z,51.90
2023-04-15T03:57:39.057Z,53.30
2023-04-15T04:00:09.281Z,53.70
2023-04-15T04:02:40.232Z,53.30
2023-04-15T04:05:09.296Z,53.80
2023-04-15T04:07:37.457Z,53.20
2023-04-15T04:10:06.105Z,54.00
2023-04-15T04:12:35.691Z,54.00
2023-04-15T04:15:03.876Z,54.10
2023-04-15T04:17:32.069Z,54.60
2023-04-15T04:20:00.216Z,54.70
2023-04-15T04:22:28.421Z,55.20
2023-04-15T04:24:56.740Z,55.90
2023-04-15T04:27:24.975Z,55.60
2023-04-15T04:29:54.415Z,56.00
2023-04-15T04:32:22.531Z,55.90
2023-04-15T04:34:50.744Z,56.20
2023-04-15T04:37:19.068Z,57.10
2023-04-15T04:39:47.314Z,57.60
2023-04-15T04:42:15.523Z,57.40
2023-04-15T04:44:43.691Z,57.40
2023-04-15T04:47:13.242Z,57.40
2023-04-15T04:49:41.770Z,57.70
2023-04-15T04:52:09.856Z,57.60
2023-04-15T04:54:38.027Z,57.10
2023-04-15T04:57:07.871Z,58.60
2023-04-15T04:59:36.577Z,57.80
2023-04-15T05:02:04.819Z,57.60
2023-04-15T05:04:34.655Z,57.70
2023-04-15T05:07:02.763Z,57.70
2023-04-15T05:09:32.517Z,57.20
2023-04-15T05:12:01.480Z,56.20
2023-04-15T05:14:29.672Z,58.00
2023-04-15T05:16:57.850Z,59.60
2023-04-15T05:19:25.971Z,59.70
2023-04-15T05:21:55.654Z,59.90
2023-04-15T05:24:23.844Z,59.60
2023-04-15T05:26:51.919Z,63.00
2023-04-15T05:29:20.157Z,60.60
2023-04-15T05:31:48.252Z,59.60
2023-04-15T05:34:17.526Z,58.80
2023-04-15T05:36:45.871Z,59.40
2023-04-15T05:39:15.554Z,61.80
2023-04-15T05:41:43.712Z,60.70
2023-04-15T05:44:11.851Z,59.90
2023-04-15T05:46:40.253Z,61.30
2023-04-15T05:49:08.425Z,59.30
2023-04-15T05:51:37.067Z,58.50
2023-04-15T05:54:05.729Z,59.60
2023-04-15T05:56:35.514Z,58.60
2023-04-15T05:59:04.096Z,59.50
2023-04-15T06:01:32.824Z,58.50
2023-04-15T06:04:01.018Z,60.00
2023-04-15T06:06:29.323Z,58.40
2023-04-15T06:08:57.572Z,58.00
2023-04-15T06:11:26.798Z,57.00
2023-04-15T06:13:56.594Z,57.50
2023-04-15T06:16:24.809Z,61.80
2023-04-15T06:18:52.963Z,64.10
2023-04-15T06:21:21.417Z,64.20
2023-04-15T06:23:49.578Z,62.50
2023-04-15T06:26:17.741Z,64.50
2023-04-15T06:28:45.870Z,64.10
2023-04-15T06:31:16.183Z,64.80
2023-04-15T06:33:44.356Z,65.90
2023-04-15T06:36:12.586Z,63.90
2023-04-15T06:38:40.763Z,63.60
2023-04-15T06:41:08.994Z,62.80
2023-04-15T06:43:37.206Z,63.10
2023-04-15T06:46:05.728Z,65.00
2023-04-15T06:48:35.216Z,62.80
2023-04-15T06:51:04.124Z,63.70
2023-04-15T06:53:32.827Z,63.70
2023-04-15T06:56:01.150Z,64.60
2023-04-15T06:58:29.418Z,65.40
2023-04-15T07:00:58.027Z,62.30
2023-04-15T07:03:26.268Z,62.60
2023-04-15T07:05:56.002Z,62.10
2023-04-15T07:08:24.486Z,63.70
2023-04-15T07:10:52.809Z,61.30
2023-04-15T07:13:21.017Z,61.70
2023-04-15T07:15:49.286Z,61.40
2023-04-15T07:18:17.718Z,61.80
2023-04-15T07:20:45.796Z,60.70
2023-04-15T07:23:15.574Z,60.70
2023-04-15T07:25:43.668Z,60.20
2023-04-15T07:28:12.074Z,59.90
2023-04-15T07:30:40.304Z,60.70
2023-04-15T07:33:08.425Z,60.20
2023-04-15T07:35:36.885Z,60.50
2023-04-15T07:38:04.959Z,60.30
2023-04-15T07:40:34.555Z,60.80
2023-04-15T07:43:03.527Z,62.80
2023-04-15T07:45:31.725Z,61.80
2023-04-15T07:47:59.809Z,62.70
2023-04-15T07:50:27.961Z,64.60
2023-04-15T07:52:56.350Z,65.30
2023-04-15T07:55:25.794Z,63.70
2023-04-15T07:57:56.618Z,60.80
2023-04-15T08:00:24.829Z,62.00
2023-04-15T08:02:54.082Z,60.30
2023-04-15T08:05:22.577Z,59.20
2023-04-15T08:07:50.765Z,60.10
2023-04-15T08:10:19.007Z,59.20
2023-04-15T08:12:49.234Z,59.10
2023-04-15T08:15:18.866Z,57.10
2023-04-15T08:17:47.098Z,57.00
2023-04-15T08:20:15.513Z,57.60
2023-04-15T08:22:43.749Z,56.60
2023-04-15T08:25:11.813Z,56.60
2023-04-15T08:27:39.980Z,55.00
2023-04-15T08:30:09.534Z,56.40
2023-04-15T08:32:39.039Z,54.00
2023-04-15T08:35:08.190Z,54.00
2023-04-15T08:37:36.323Z,54.60
2023-04-15T08:40:04.860Z,54.80
2023-04-15T08:42:37.942Z,54.80
2023-04-15T08:45:10.248Z,55.50
2023-04-15T08:47:40.716Z,56.10
2023-04-15T08:50:11.940Z,53.80
2023-04-15T08:52:41.199Z,53.00
2023-04-15T08:55:10.608Z,51.90
2023-04-15T08:57:39.830Z,51.60
2023-04-15T09:00:09.419Z,50.60
2023-04-15T09:02:39.671Z,49.10
2023-04-15T09:05:09.102Z,49.80
2023-04-15T09:07:37.472Z,48.00
2023-04-15T09:10:06.560Z,48.00
2023-04-15T09:12:36.257Z,48.70
2023-04-15T09:15:04.625Z,50.50
2023-04-15T09:17:35.139Z,49.20
2023-04-15T09:20:13.075Z,49.50
2023-04-15T09:22:42.277Z,49.10
2023-04-15T09:25:28.762Z,46.80
2023-04-15T09:27:58.437Z,47.50
2023-04-15T09:30:27.101Z,47.40
2023-04-15T09:32:57.348Z,47.10
2023-04-15T09:35:27.962Z,48.90
2023-04-15T09:38:04.396Z,47.80
2023-04-15T09:40:33.944Z,46.70
2023-04-15T09:43:03.002Z,46.10
2023-04-15T09:45:32.342Z,44.20
2023-04-15T09:48:02.007Z,47.20
2023-04-15T09:50:31.532Z,46.80
2023-04-15T09:52:59.830Z,45.50
2023-04-15T09:55:27.941Z,39.80
2023-04-15T09:57:56.076Z,40.10
2023-04-15T10:00:24.206Z,40.30
2023-04-15T10:02:53.405Z,40.10
2023-04-15T10:05:23.407Z,42.30
2023-04-15T10:07:53.237Z,45.20
2023-04-15T10:10:22.188Z,42.80
2023-04-15T10:12:52.537Z,40.60
2023-04-15T10:15:20.841Z,40.60
2023-04-15T10:17:51.997Z,44.90
2023-04-15T10:20:22.002Z,39.30
2023-04-15T10:22:50.719Z,41.20
2023-04-15T10:25:21.055Z,41.20
2023-04-15T10:28:12.917Z,39.80
2023-04-15T10:30:41.557Z,42.10
2023-04-15T10:33:11.219Z,40.30
2023-04-15T10:35:39.895Z,38.70
2023-04-15T10:38:39.122Z,36.60
2023-04-15T10:41:21.147Z,36.90
2023-04-15T10:43:51.584Z,37.00
2023-04-15T10:46:37.779Z,35.80
2023-04-15T10:49:11.152Z,43.30
2023-04-15T10:51:42.551Z,35.20
2023-04-15T10:54:14.916Z,37.80
2023-04-15T10:56:46.144Z,39.60
2023-04-15T10:59:14.262Z,38.70
2023-04-15T11:01:53.183Z,37.40
2023-04-15T11:04:52.999Z,37.70
2023-04-15T11:07:42.335Z,36.50
2023-04-15T11:10:58.844Z,34.60
2023-04-15T11:13:31.504Z,36.00
2023-04-15T11:16:04.614Z,36.50
2023-04-15T11:18:35.855Z,35.40
2023-04-15T11:21:06.588Z,36.20
2023-04-15T11:23:40.073Z,36.10
2023-04-15T11:26:12.021Z,35.50
2023-04-15T11:28:43.620Z,35.40
2023-04-15T11:31:13.980Z,33.10
2023-04-15T11:33:54.776Z,34.40
2023-04-15T11:36:27.212Z,31.50
2023-04-15T11:38:55.656Z,31.60
2023-04-15T11:41:24.417Z,26.30
2023-04-15T11:43:54.417Z,33.10
2023-04-15T11:46:22.721Z,30.20
2023-04-15T11:48:51.093Z,26.50
2023-04-15T11:51:21.841Z,26.60
2023-04-15T11:53:52.018Z,22.40
2023-04-15T11:56:22.789Z,22.50
2023-04-15T11:58:57.036Z,19.10
2023-04-15T12:01:32.909Z,21.80
2023-04-15T12:04:02.452Z,24.60
2023-04-15T12:06:35.041Z,24.20
2023-04-15T12:09:11.137Z,22.30
2023-04-15T12:11:41.842Z,22.20
2023-04-15T12:14:26.316Z,22.50
2023-04-15T12:16:58.331Z,23.50
2023-04-15T12:19:28.680Z,22.90
2023-04-15T12:22:01.164Z,24.40
2023-04-15T12:24:32.049Z,22.50
2023-04-15T12:27:03.979Z,21.10
2023-04-15T12:29:34.505Z,22.70
2023-04-15T12:32:07.605Z,20.00
2023-04-15T12:34:37.003Z,21.10
2023-04-15T12:37:09.566Z,19.50
2023-04-15T12:39:39.688Z,22.00
2023-04-15T12:42:09.037Z,21.30
2023-04-15T12:44:40.283Z,22.10
2023-04-15T12:47:09.858Z,23.30
2023-04-15T12:49:38.302Z,21.70
2023-04-15T12:52:06.864Z,21.30
2023-04-15T12:54:36.116Z,20.30
2023-04-15T12:57:07.320Z,18.70
2023-04-15T12:59:36.032Z,22.40
2023-04-15T13:02:06.214Z,22.80
2023-04-15T13:04:34.486Z,21.70
2023-04-15T13:07:03.182Z,18.50
2023-04-15T13:09:31.356Z,18.80
2023-04-15T13:11:59.703Z,18.90
2023-04-15T13:14:28.184Z,21.40
2023-04-15T13:16:56.327Z,19.10
2023-04-15T13:19:25.800Z,20.10
2023-04-15T13:21:53.992Z,19.60
2023-04-15T13:24:22.127Z,20.10
2023-04-15T13:26:50.556Z,19.00
2023-04-15T13:29:18.804Z,21.90
2023-04-15T13:31:47.033Z,19.70
2023-04-15T13:34:15.204Z,21.70
2023-04-15T13:36:44.725Z,22.90
2023-04-15T13:39:13.284Z,21.90
2023-04-15T13:41:41.705Z,24.50
2023-04-15T13:44:09.840Z,23.70
2023-04-15T13:46:39.624Z,25.00
2023-04-15T13:49:08.154Z,22.40
2023-04-15T13:51:37.236Z,24.80
2023-04-15T13:54:07.120Z,23.70
2023-04-15T13:56:35.289Z,24.60
2023-04-15T13:59:03.706Z,23.90
2023-04-15T14:01:32.195Z,22.70
2023-04-15T14:04:00.593Z,23.60
2023-04-15T14:06:29.243Z,25.30
2023-04-15T14:08:57.346Z,22.80
2023-04-15T14:11:26.983Z,24.70
2023-04-15T14:13:55.080Z,26.40
2023-04-15T14:16:23.371Z,25.70
2023-04-15T14:18:51.546Z,24.70
2023-04-15T14:21:19.916Z,25.20
2023-04-15T14:23:48.067Z,25.10
2023-04-15T14:26:16.219Z,26.60
2023-04-15T14:28:45.807Z,27.10
2023-04-15T14:31:14.324Z,25.90
2023-04-15T14:33:42.812Z,26.60
2023-04-15T14:36:11.394Z,25.40
2023-04-15T14:38:40.293Z,25.70
2023-04-15T14:41:09.055Z,24.80
2023-04-15T14:43:37.798Z,26.00
2023-04-15T14:46:08.592Z,27.50
2023-04-15T14:48:36.961Z,26.10
2023-04-15T14:51:05.289Z,26.60
2023-04-15T14:53:33.493Z,28.70
2023-04-15T14:56:01.647Z,29.30
2023-04-15T14:58:29.840Z,27.10
2023-04-15T15:00:58.086Z,28.00
2023-04-15T15:03:27.762Z,28.00
2023-04-15T15:05:57.716Z,28.10
2023-04-15T15:08:26.162Z,29.90
2023-04-15T15:10:54.360Z,29.20
2023-04-15T15:13:22.582Z,32.00
2023-04-15T15:15:50.778Z,28.50
2023-04-15T15:18:19.791Z,26.80
2023-04-15T15:20:49.577Z,29.20
2023-04-15T15:23:17.759Z,28.80
2023-04-15T15:25:47.454Z,30.60
2023-04-15T15:28:15.585Z,30.30
2023-04-15T15:30:43.667Z,28.70
2023-04-15T15:33:11.889Z,28.70
2023-04-15T15:35:41.021Z,29.70
2023-04-15T15:38:13.294Z,28.90
2023-04-15T15:40:41.739Z,29.90
2023-04-15T15:43:10.289Z,29.80
2023-04-15T15:45:38.596Z,29.40
2023-04-15T15:48:07.708Z,28.60
2023-04-15T15:50:35.963Z,29.30
2023-04-15T15:53:04.171Z,30.40
2023-04-15T15:55:33.949Z,31.20
2023-04-15T15:58:02.081Z,29.30
2023-04-15T16:00:30.402Z,29.30
2023-04-15T16:05:29.728Z,29.60
2023-04-15T16:07:57.894Z,28.90
2023-04-15T16:10:26.690Z,31.60
2023-04-15T16:12:56.501Z,30.00
2023-04-15T16:15:26.511Z,31.30
2023-04-15T16:17:54.736Z,30.40
2023-04-15T16:20:22.976Z,31.10
2023-04-15T16:22:51.719Z,30.30
2023-04-15T16:25:20.029Z,24.70
2023-04-15T16:28:00.799Z,20.80
2023-04-15T16:30:37.005Z,17.80
2023-04-15T16:33:05.315Z,18.70
2023-04-15T16:35:34.746Z,18.70
2023-04-15T16:38:03.509Z,26.00
2023-04-15T16:40:32.957Z,28.40
2023-04-15T16:43:01.196Z,28.70
2023-04-15T16:45:29.383Z,30.20
2023-04-15T16:47:59.180Z,31.30
2023-04-15T16:50:27.345Z,31.90
2023-04-15T16:52:55.868Z,32.70
2023-04-15T16:55:24.081Z,33.20
2023-04-15T16:58:02.989Z,33.00
2023-04-15T17:00:33.012Z,34.50
2023-04-15T17:03:03.648Z,35.80
2023-04-15T17:05:32.081Z,33.70
2023-04-15T17:08:00.235Z,35.60
2023-04-15T17:10:29.020Z,33.90
2023-04-15T17:12:58.230Z,33.90
2023-04-15T17:15:27.469Z,35.60
2023-04-15T17:17:56.258Z,34.90
2023-04-15T17:20:26.566Z,35.40
2023-04-15T17:22:54.713Z,35.70
2023-04-15T17:25:23.018Z,35.30
2023-04-15T17:27:51.349Z,35.60
2023-04-15T17:30:20.113Z,35.40
2023-04-15T17:32:48.351Z,34.10
2023-04-15T17:35:16.472Z,34.00
2023-04-15T17:37:46.809Z,34.50
2023-04-15T17:40:15.231Z,34.90
2023-04-15T17:42:43.374Z,34.30
2023-04-15T17:45:12.441Z,34.30
2023-04-15T17:47:40.571Z,33.50
2023-04-15T17:50:09.832Z,33.80
2023-04-15T17:52:37.990Z,34.30
2023-04-15T17:55:09.002Z,31.90
2023-04-15T17:57:37.335Z,33.80
2023-04-15T18:00:06.329Z,37.10
2023-04-15T18:02:41.321Z,39.00
2023-04-15T18:05:10.424Z,40.40
2023-04-15T18:07:38.721Z,42.50
2023-04-15T18:10:09.913Z,42.90
2023-04-15T18:12:38.186Z,43.50
2023-04-15T18:15:07.400Z,44.60
2023-04-15T18:17:35.534Z,45.30
2023-04-15T18:20:03.803Z,44.60
2023-04-15T18:22:31.988Z,45.30
2023-04-15T18:25:04.302Z,46.20
2023-04-15T18:27:35.628Z,46.70
2023-04-15T18:30:03.828Z,46.60
2023-04-15T18:32:32.689Z,46.60
2023-04-15T18:35:01.093Z,46.90
2023-04-15T18:37:30.399Z,47.80
2023-04-15T18:39:58.790Z,48.20
2023-04-15T18:42:27.291Z,50.10
2023-04-15T18:44:56.852Z,51.90
2023-04-15T18:47:27.128Z,50.60
2023-04-15T18:49:55.479Z,50.80
2023-04-15T18:52:23.619Z,50.80
2023-04-15T18:54:51.679Z,51.80
2023-04-15T18:57:22.730Z,52.10
2023-04-15T18:59:55.318Z,52.20
2023-04-15T19:02:24.902Z,51.20
2023-04-15T19:04:53.105Z,52.30
2023-04-15T19:07:22.133Z,51.00
2023-04-15T19:09:50.372Z,50.60
2023-04-15T19:12:18.526Z,50.70
2023-04-15T19:14:46.670Z,51.20
2023-04-15T19:17:14.788Z,52.90
2023-04-15T19:19:44.457Z,55.20
2023-04-15T19:22:12.621Z,56.80
2023-04-15T19:24:40.899Z,56.40
2023-04-15T19:27:09.031Z,57.30
2023-04-15T19:29:37.193Z,56.70
2023-04-15T19:32:05.729Z,56.80
2023-04-15T19:34:33.984Z,56.30
2023-04-15T19:37:03.435Z,56.90
2023-04-15T19:39:31.816Z,56.70
2023-04-15T19:41:59.912Z,55.20
2023-04-15T19:44:28.312Z,55.90
2023-04-15T19:46:56.416Z,56.20
2023-04-15T19:49:25.948Z,56.00
2023-04-15T19:51:54.101Z,56.50
2023-04-15T19:54:24.084Z,56.50
2023-04-15T19:56:52.176Z,57.30
2023-04-15T19:59:20.274Z,57.10
2023-04-15T20:01:48.575Z,58.70
2023-04-15T20:04:16.933Z,58.90
2023-04-15T20:06:45.281Z,58.70
2023-04-15T20:09:13.408Z,59.20
2023-04-15T20:12:46.228Z,59.00
2023-04-15T20:14:31.530Z,58.90
2023-04-15T20:16:59.681Z,59.80
2023-04-15T20:19:28.051Z,59.90
2023-04-15T20:21:56.189Z,60.30
2023-04-15T20:24:24.733Z,59.20
2023-04-15T20:26:54.282Z,59.40
2023-04-15T20:29:22.504Z,59.30
2023-04-15T20:31:51.022Z,61.50
2023-04-15T20:34:19.348Z,61.70
2023-04-15T20:36:47.419Z,60.70
2023-04-15T20:39:15.903Z,60.90
2023-04-15T20:41:44.039Z,62.10
2023-04-15T20:44:13.501Z,61.90
2023-04-15T20:46:41.793Z,61.10
2023-04-15T20:49:09.978Z,61.40
2023-04-15T20:51:38.274Z,61.00
2023-04-15T20:54:06.881Z,60.90
2023-04-15T20:56:34.976Z,60.20
2023-04-15T20:59:03.356Z,60.60
2023-04-15T21:01:33.289Z,61.00
2023-04-15T21:04:01.427Z,60.80
2023-04-15T21:06:29.621Z,60.40
2023-04-15T21:08:57.690Z,60.70
2023-04-15T21:11:46.473Z,60.60
2023-04-15T21:14:13.929Z,60.90
2023-04-15T21:16:43.898Z,61.40
2023-04-15T21:19:12.043Z,61.60
2023-04-15T21:21:40.485Z,61.90
2023-04-15T21:24:08.918Z,62.50
2023-04-15T21:26:37.080Z,61.10
2023-04-15T21:29:05.857Z,61.50
2023-04-15T21:31:35.424Z,62.30
2023-04-15T21:34:04.949Z,61.70
2023-04-15T21:36:33.934Z,62.50
2023-04-15T21:39:02.436Z,62.10
2023-04-15T21:41:31.106Z,62.30
2023-04-15T21:43:59.258Z,62.50
2023-04-15T21:46:33.360Z,62.30
2023-04-15T21:49:06.858Z,61.90
2023-04-15T21:51:35.627Z,60.80
2023-04-15T21:54:03.753Z,60.10
2023-04-15T21:56:32.447Z,61.10
2023-04-15T21:59:01.204Z,62.10
2023-04-15T22:01:29.868Z,60.80
2023-04-15T22:03:58.197Z,61.20
2023-04-15T22:06:27.813Z,62.00
2023-04-15T22:08:57.772Z,62.30
2023-04-15T22:11:28.506Z,63.90
2023-04-15T22:13:57.712Z,63.50
2023-04-15T22:16:26.471Z,64.20
2023-04-15T22:18:54.891Z,62.90
2023-04-15T22:21:23.077Z,63.40
2023-04-15T22:23:53.233Z,63.70
2023-04-15T22:26:41.393Z,64.40
2023-04-15T22:29:09.661Z,64.80
2023-04-15T22:31:38.048Z,64.10
2023-04-15T22:34:06.241Z,63.50
2023-04-15T22:36:34.440Z,65.10
2023-04-15T22:39:04.288Z,64.60
2023-04-15T22:41:32.655Z,65.60
2023-04-15T22:44:00.849Z,65.00
2023-04-15T22:46:28.988Z,64.60
2023-04-15T22:48:57.143Z,64.70
2023-04-15T22:51:26.994Z,64.10
2023-04-15T22:53:55.235Z,63.40
2023-04-15T22:56:24.781Z,65.80
2023-04-15T22:58:53.019Z,66.10
2023-04-15T23:01:21.262Z,66.60
2023-04-15T23:03:58.262Z,66.70
2023-04-15T23:06:35.121Z,67.00
2023-04-15T23:09:03.277Z,67.30
2023-04-15T23:11:32.857Z,66.70
2023-04-15T23:14:00.990Z,66.70
2023-04-15T23:16:29.506Z,68.90
2023-04-15T23:18:57.607Z,69.70
2023-04-15T23:21:27.344Z,70.00
2023-04-15T23:23:55.629Z,69.50
2023-04-15T23:26:23.752Z,68.60
2023-04-15T23:28:53.267Z,71.40
2023-04-15T23:31:21.507Z,73.30
2023-04-15T23:33:49.599Z,75.60
2023-04-15T23:36:17.751Z,74.00
2023-04-15T23:38:46.114Z,72.80
2023-04-15T23:41:15.018Z,72.80
2023-04-15T23:43:43.129Z,71.90
2023-04-15T23:46:13.144Z,70.50
2023-04-15T23:48:41.956Z,70.60
2023-04-15T23:51:10.134Z,70.20
2023-04-15T23:53:38.261Z,69.30
2023-04-15T23:56:07.208Z,69.50
2023-04-15T23:58:35.327Z,69.00
